sensor_id;sensor_type;location;lat;lon;timestamp;P1;durP1;ratioP1;P2;durP2;ratioP2
25163;SDS011;13440;50.860;13.662;2023-12-14T00:00:14;3.23;;;1.93;;
25163;SDS011;13440;50.860;13.662;2023-12-14T00:02:40;2.33;;;2.08;;
25163;SDS011;13440;50.860;13.662;2023-12-14T00:05:05;4.30;;;2.20;;
25163;SDS011;13440;50.860;13.662;2023-12-14T00:07:30;2.90;;;2.03;;
25163;SDS011;13440;50.860;13.662;2023-12-14T00:09:56;6.17;;;2.07;;
25163;SDS011;13440;50.860;13.662;2023-12-14T00:12:21;5.30;;;2.05;;
25163;SDS011;13440;50.860;13.662;2023-12-14T00:14:46;2.83;;;1.98;;
25163;SDS011;13440;50.860;13.662;2023-12-14T00:17:11;2.23;;;2.00;;
25163;SDS011;13440;50.860;13.662;2023-12-14T00:19:37;3.30;;;1.87;;
25163;SDS011;13440;50.860;13.662;2023-12-14T00:22:02;2.90;;;1.80;;
25163;SDS011;13440;50.860;13.662;2023-12-14T00:24:27;3.00;;;1.80;;
25163;SDS011;13440;50.860;13.662;2023-12-14T00:26:52;2.83;;;1.80;;
25163;SDS011;13440;50.860;13.662;2023-12-14T00:29:17;4.13;;;2.00;;
25163;SDS011;13440;50.860;13.662;2023-12-14T00:31:43;3.47;;;1.70;;
25163;SDS011;13440;50.860;13.662;2023-12-14T00:34:08;2.78;;;1.67;;
25163;SDS011;13440;50.860;13.662;2023-12-14T00:36:33;2.45;;;1.90;;
25163;SDS011;13440;50.860;13.662;2023-12-14T00:38:58;1.75;;;1.58;;
25163;SDS011;13440;50.860;13.662;2023-12-14T00:41:24;3.53;;;1.90;;
25163;SDS011;13440;50.860;13.662;2023-12-14T00:43:49;2.23;;;1.47;;
25163;SDS011;13440;50.860;13.662;2023-12-14T00:46:14;3.22;;;1.80;;
25163;SDS011;13440;50.860;13.662;2023-12-14T00:48:39;2.65;;;1.75;;
25163;SDS011;13440;50.860;13.662;2023-12-14T00:51:05;3.73;;;1.73;;
25163;SDS011;13440;50.860;13.662;2023-12-14T00:53:30;2.70;;;2.10;;
25163;SDS011;13440;50.860;13.662;2023-12-14T00:55:55;3.83;;;2.08;;
25163;SDS011;13440;50.860;13.662;2023-12-14T00:58:20;5.73;;;2.10;;
25163;SDS011;13440;50.860;13.662;2023-12-14T01:00:45;3.05;;;1.90;;
25163;SDS011;13440;50.860;13.662;2023-12-14T01:03:11;3.28;;;2.00;;
25163;SDS011;13440;50.860;13.662;2023-12-14T01:05:37;6.00;;;1.88;;
25163;SDS011;13440;50.860;13.662;2023-12-14T01:08:02;2.33;;;1.90;;
25163;SDS011;13440;50.860;13.662;2023-12-14T01:10:27;2.83;;;1.80;;
25163;SDS011;13440;50.860;13.662;2023-12-14T01:12:52;4.57;;;2.03;;
25163;SDS011;13440;50.860;13.662;2023-12-14T01:15:17;4.67;;;1.90;;
25163;SDS011;13440;50.860;13.662;2023-12-14T01:17:43;6.13;;;1.93;;
25163;SDS011;13440;50.860;13.662;2023-12-14T01:20:08;2.93;;;1.90;;
25163;SDS011;13440;50.860;13.662;2023-12-14T01:22:33;2.38;;;1.77;;
25163;SDS011;13440;50.860;13.662;2023-12-14T01:24:59;3.25;;;1.95;;
25163;SDS011;13440;50.860;13.662;2023-12-14T01:27:24;3.78;;;2.17;;
25163;SDS011;13440;50.860;13.662;2023-12-14T01:29:49;3.97;;;2.10;;
25163;SDS011;13440;50.860;13.662;2023-12-14T01:32:15;3.73;;;2.03;;
25163;SDS011;13440;50.860;13.662;2023-12-14T01:34:40;3.97;;;2.17;;
25163;SDS011;13440;50.860;13.662;2023-12-14T01:37:05;1.97;;;1.80;;
25163;SDS011;13440;50.860;13.662;2023-12-14T01:39:30;3.17;;;1.73;;
25163;SDS011;13440;50.860;13.662;2023-12-14T01:41:55;2.08;;;1.75;;
25163;SDS011;13440;50.860;13.662;2023-12-14T01:44:21;1.80;;;1.70;;
25163;SDS011;13440;50.860;13.662;2023-12-14T01:46:46;3.28;;;2.25;;
25163;SDS011;13440;50.860;13.662;2023-12-14T01:49:11;2.93;;;1.90;;
25163;SDS011;13440;50.860;13.662;2023-12-14T01:51:36;2.03;;;1.60;;
25163;SDS011;13440;50.860;13.662;2023-12-14T01:54:02;1.87;;;1.57;;
25163;SDS011;13440;50.860;13.662;2023-12-14T01:56:27;5.43;;;2.35;;
25163;SDS011;13440;50.860;13.662;2023-12-14T01:58:52;3.30;;;1.80;;
25163;SDS011;13440;50.860;13.662;2023-12-14T02:01:22;2.83;;;2.00;;
25163;SDS011;13440;50.860;13.662;2023-12-14T02:03:49;2.42;;;1.85;;
25163;SDS011;13440;50.860;13.662;2023-12-14T02:06:15;3.35;;;2.20;;
25163;SDS011;13440;50.860;13.662;2023-12-14T02:08:41;4.35;;;2.40;;
25163;SDS011;13440;50.860;13.662;2023-12-14T02:11:06;2.80;;;2.23;;
25163;SDS011;13440;50.860;13.662;2023-12-14T02:13:32;3.03;;;1.80;;
25163;SDS011;13440;50.860;13.662;2023-12-14T02:15:57;3.97;;;1.80;;
25163;SDS011;13440;50.860;13.662;2023-12-14T02:18:22;3.90;;;2.03;;
25163;SDS011;13440;50.860;13.662;2023-12-14T02:20:47;2.90;;;1.90;;
25163;SDS011;13440;50.860;13.662;2023-12-14T02:23:13;3.87;;;1.90;;
25163;SDS011;13440;50.860;13.662;2023-12-14T02:25:38;3.35;;;1.80;;
25163;SDS011;13440;50.860;13.662;2023-12-14T02:28:03;3.67;;;1.90;;
25163;SDS011;13440;50.860;13.662;2023-12-14T02:30:28;2.07;;;1.87;;
25163;SDS011;13440;50.860;13.662;2023-12-14T02:32:54;3.77;;;1.83;;
25163;SDS011;13440;50.860;13.662;2023-12-14T02:35:19;2.05;;;1.85;;
25163;SDS011;13440;50.860;13.662;2023-12-14T02:37:44;3.60;;;1.92;;
25163;SDS011;13440;50.860;13.662;2023-12-14T02:40:10;2.47;;;2.08;;
25163;SDS011;13440;50.860;13.662;2023-12-14T02:42:35;4.50;;;2.00;;
25163;SDS011;13440;50.860;13.662;2023-12-14T02:45:01;2.15;;;1.95;;
25163;SDS011;13440;50.860;13.662;2023-12-14T02:47:27;3.92;;;2.40;;
25163;SDS011;13440;50.860;13.662;2023-12-14T02:49:52;3.65;;;2.30;;
25163;SDS011;13440;50.860;13.662;2023-12-14T02:52:17;3.75;;;2.13;;
25163;SDS011;13440;50.860;13.662;2023-12-14T02:54:43;3.97;;;2.20;;
25163;SDS011;13440;50.860;13.662;2023-12-14T02:57:08;2.77;;;2.30;;
25163;SDS011;13440;50.860;13.662;2023-12-14T02:59:33;5.03;;;2.47;;
25163;SDS011;13440;50.860;13.662;2023-12-14T03:01:58;2.87;;;2.07;;
25163;SDS011;13440;50.860;13.662;2023-12-14T03:04:24;3.55;;;1.95;;
25163;SDS011;13440;50.860;13.662;2023-12-14T03:06:50;3.43;;;2.60;;
25163;SDS011;13440;50.860;13.662;2023-12-14T03:09:15;3.47;;;2.00;;
25163;SDS011;13440;50.860;13.662;2023-12-14T03:11:40;2.47;;;2.27;;
25163;SDS011;13440;50.860;13.662;2023-12-14T03:14:05;2.57;;;2.27;;
25163;SDS011;13440;50.860;13.662;2023-12-14T03:16:31;2.90;;;2.58;;
25163;SDS011;13440;50.860;13.662;2023-12-14T03:18:56;3.70;;;2.33;;
25163;SDS011;13440;50.860;13.662;2023-12-14T03:21:22;3.75;;;2.30;;
25163;SDS011;13440;50.860;13.662;2023-12-14T03:23:47;3.05;;;2.45;;
25163;SDS011;13440;50.860;13.662;2023-12-14T03:26:12;4.90;;;2.80;;
25163;SDS011;13440;50.860;13.662;2023-12-14T03:28:37;4.73;;;2.93;;
25163;SDS011;13440;50.860;13.662;2023-12-14T03:31:03;4.13;;;3.40;;
25163;SDS011;13440;50.860;13.662;2023-12-14T03:33:28;5.97;;;2.70;;
25163;SDS011;13440;50.860;13.662;2023-12-14T03:35:54;5.47;;;2.50;;
25163;SDS011;13440;50.860;13.662;2023-12-14T03:38:19;3.53;;;2.65;;
25163;SDS011;13440;50.860;13.662;2023-12-14T03:40:45;5.07;;;2.63;;
25163;SDS011;13440;50.860;13.662;2023-12-14T03:43:10;3.35;;;2.63;;
25163;SDS011;13440;50.860;13.662;2023-12-14T03:45:35;3.72;;;2.80;;
25163;SDS011;13440;50.860;13.662;2023-12-14T03:48:00;3.78;;;3.00;;
25163;SDS011;13440;50.860;13.662;2023-12-14T03:50:26;5.77;;;3.07;;
25163;SDS011;13440;50.860;13.662;2023-12-14T03:52:51;4.20;;;2.97;;
25163;SDS011;13440;50.860;13.662;2023-12-14T03:55:16;5.17;;;2.87;;
25163;SDS011;13440;50.860;13.662;2023-12-14T03:57:41;5.10;;;3.43;;
25163;SDS011;13440;50.860;13.662;2023-12-14T04:00:10;3.72;;;2.90;;
25163;SDS011;13440;50.860;13.662;2023-12-14T04:02:36;4.78;;;3.35;;
25163;SDS011;13440;50.860;13.662;2023-12-14T04:05:01;5.35;;;4.18;;
25163;SDS011;13440;50.860;13.662;2023-12-14T04:07:26;8.13;;;4.65;;
25163;SDS011;13440;50.860;13.662;2023-12-14T04:09:52;9.53;;;5.67;;
25163;SDS011;13440;50.860;13.662;2023-12-14T04:12:17;12.80;;;7.80;;
25163;SDS011;13440;50.860;13.662;2023-12-14T04:14:43;13.52;;;8.07;;
25163;SDS011;13440;50.860;13.662;2023-12-14T04:17:08;15.57;;;8.50;;
25163;SDS011;13440;50.860;13.662;2023-12-14T04:19:33;23.85;;;12.95;;
25163;SDS011;13440;50.860;13.662;2023-12-14T04:21:58;16.53;;;9.90;;
25163;SDS011;13440;50.860;13.662;2023-12-14T04:24:24;24.33;;;13.90;;
25163;SDS011;13440;50.860;13.662;2023-12-14T04:26:49;24.27;;;15.00;;
25163;SDS011;13440;50.860;13.662;2023-12-14T04:29:14;19.90;;;13.30;;
25163;SDS011;13440;50.860;13.662;2023-12-14T04:31:39;19.63;;;11.70;;
25163;SDS011;13440;50.860;13.662;2023-12-14T04:34:04;17.73;;;10.07;;
25163;SDS011;13440;50.860;13.662;2023-12-14T04:36:29;22.37;;;12.53;;
25163;SDS011;13440;50.860;13.662;2023-12-14T04:38:55;17.35;;;9.75;;
25163;SDS011;13440;50.860;13.662;2023-12-14T04:41:20;23.53;;;12.40;;
25163;SDS011;13440;50.860;13.662;2023-12-14T04:43:45;22.70;;;12.77;;
25163;SDS011;13440;50.860;13.662;2023-12-14T04:46:11;27.13;;;14.35;;
25163;SDS011;13440;50.860;13.662;2023-12-14T04:48:36;27.97;;;16.53;;
25163;SDS011;13440;50.860;13.662;2023-12-14T04:51:01;29.87;;;17.30;;
25163;SDS011;13440;50.860;13.662;2023-12-14T04:53:26;27.83;;;16.30;;
25163;SDS011;13440;50.860;13.662;2023-12-14T04:55:51;27.47;;;15.87;;
25163;SDS011;13440;50.860;13.662;2023-12-14T04:58:17;24.10;;;15.47;;
25163;SDS011;13440;50.860;13.662;2023-12-14T05:00:42;25.60;;;16.20;;
25163;SDS011;13440;50.860;13.662;2023-12-14T05:03:07;25.73;;;16.48;;
25163;SDS011;13440;50.860;13.662;2023-12-14T05:05:32;29.50;;;16.90;;
25163;SDS011;13440;50.860;13.662;2023-12-14T05:07:58;25.90;;;16.27;;
25163;SDS011;13440;50.860;13.662;2023-12-14T05:10:23;28.25;;;17.70;;
25163;SDS011;13440;50.860;13.662;2023-12-14T05:12:48;33.08;;;18.40;;
25163;SDS011;13440;50.860;13.662;2023-12-14T05:15:13;29.65;;;16.85;;
25163;SDS011;13440;50.860;13.662;2023-12-14T05:17:39;28.03;;;17.30;;
25163;SDS011;13440;50.860;13.662;2023-12-14T05:20:05;32.90;;;17.42;;
25163;SDS011;13440;50.860;13.662;2023-12-14T05:22:33;27.52;;;16.55;;
25163;SDS011;13440;50.860;13.662;2023-12-14T05:24:58;26.97;;;15.87;;
25163;SDS011;13440;50.860;13.662;2023-12-14T05:27:23;28.63;;;16.42;;
25163;SDS011;13440;50.860;13.662;2023-12-14T05:29:49;26.30;;;16.20;;
25163;SDS011;13440;50.860;13.662;2023-12-14T05:32:15;25.10;;;15.23;;
25163;SDS011;13440;50.860;13.662;2023-12-14T05:34:40;20.73;;;13.67;;
25163;SDS011;13440;50.860;13.662;2023-12-14T05:37:05;23.40;;;14.33;;
25163;SDS011;13440;50.860;13.662;2023-12-14T05:39:30;20.52;;;12.85;;
25163;SDS011;13440;50.860;13.662;2023-12-14T05:41:55;16.07;;;11.00;;
25163;SDS011;13440;50.860;13.662;2023-12-14T05:44:21;19.13;;;12.70;;
25163;SDS011;13440;50.860;13.662;2023-12-14T05:46:47;20.08;;;12.40;;
25163;SDS011;13440;50.860;13.662;2023-12-14T05:49:13;22.83;;;12.40;;
25163;SDS011;13440;50.860;13.662;2023-12-14T05:51:38;14.80;;;9.83;;
25163;SDS011;13440;50.860;13.662;2023-12-14T05:54:04;16.17;;;10.10;;
25163;SDS011;13440;50.860;13.662;2023-12-14T05:56:29;14.50;;;11.00;;
25163;SDS011;13440;50.860;13.662;2023-12-14T05:58:55;16.88;;;11.00;;
25163;SDS011;13440;50.860;13.662;2023-12-14T06:01:20;20.97;;;12.80;;
25163;SDS011;13440;50.860;13.662;2023-12-14T06:03:45;19.98;;;13.68;;
25163;SDS011;13440;50.860;13.662;2023-12-14T06:06:11;19.05;;;12.18;;
25163;SDS011;13440;50.860;13.662;2023-12-14T06:08:38;18.45;;;11.35;;
25163;SDS011;13440;50.860;13.662;2023-12-14T06:11:03;19.88;;;12.40;;
25163;SDS011;13440;50.860;13.662;2023-12-14T06:13:30;23.30;;;14.05;;
25163;SDS011;13440;50.860;13.662;2023-12-14T06:15:56;26.37;;;14.93;;
25163;SDS011;13440;50.860;13.662;2023-12-14T06:18:21;40.10;;;18.37;;
25163;SDS011;13440;50.860;13.662;2023-12-14T06:20:46;44.07;;;19.77;;
25163;SDS011;13440;50.860;13.662;2023-12-14T06:23:11;47.40;;;19.97;;
25163;SDS011;13440;50.860;13.662;2023-12-14T06:25:36;51.70;;;20.17;;
25163;SDS011;13440;50.860;13.662;2023-12-14T06:28:02;46.10;;;19.60;;
25163;SDS011;13440;50.860;13.662;2023-12-14T06:30:28;45.53;;;20.25;;
25163;SDS011;13440;50.860;13.662;2023-12-14T06:32:53;65.03;;;21.90;;
25163;SDS011;13440;50.860;13.662;2023-12-14T06:35:18;70.90;;;23.07;;
25163;SDS011;13440;50.860;13.662;2023-12-14T06:37:43;62.83;;;23.23;;
25163;SDS011;13440;50.860;13.662;2023-12-14T06:40:09;61.78;;;24.08;;
25163;SDS011;13440;50.860;13.662;2023-12-14T06:42:34;83.50;;;25.65;;
25163;SDS011;13440;50.860;13.662;2023-12-14T06:45:01;90.70;;;34.17;;
25163;SDS011;13440;50.860;13.662;2023-12-14T06:47:27;73.35;;;25.77;;
25163;SDS011;13440;50.860;13.662;2023-12-14T06:49:52;55.75;;;23.38;;
25163;SDS011;13440;50.860;13.662;2023-12-14T06:52:18;46.90;;;21.37;;
25163;SDS011;13440;50.860;13.662;2023-12-14T06:54:43;42.10;;;20.35;;
25163;SDS011;13440;50.860;13.662;2023-12-14T06:57:08;33.23;;;17.43;;
25163;SDS011;13440;50.860;13.662;2023-12-14T06:59:33;30.35;;;17.45;;
25163;SDS011;13440;50.860;13.662;2023-12-14T07:01:59;27.50;;;15.88;;
25163;SDS011;13440;50.860;13.662;2023-12-14T07:04:24;28.00;;;16.60;;
25163;SDS011;13440;50.860;13.662;2023-12-14T07:06:50;30.48;;;16.52;;
25163;SDS011;13440;50.860;13.662;2023-12-14T07:09:15;24.60;;;14.98;;
25163;SDS011;13440;50.860;13.662;2023-12-14T07:11:40;24.63;;;15.30;;
25163;SDS011;13440;50.860;13.662;2023-12-14T07:14:05;27.10;;;15.95;;
25163;SDS011;13440;50.860;13.662;2023-12-14T07:16:31;24.50;;;15.27;;
25163;SDS011;13440;50.860;13.662;2023-12-14T07:18:56;28.20;;;16.07;;
25163;SDS011;13440;50.860;13.662;2023-12-14T07:21:21;24.23;;;13.83;;
25163;SDS011;13440;50.860;13.662;2023-12-14T07:23:47;25.65;;;14.05;;
25163;SDS011;13440;50.860;13.662;2023-12-14T07:26:13;24.95;;;13.93;;
25163;SDS011;13440;50.860;13.662;2023-12-14T07:28:38;21.13;;;13.13;;
25163;SDS011;13440;50.860;13.662;2023-12-14T07:31:03;35.72;;;20.95;;
25163;SDS011;13440;50.860;13.662;2023-12-14T07:33:28;19.20;;;11.53;;
25163;SDS011;13440;50.860;13.662;2023-12-14T07:35:54;15.17;;;9.67;;
25163;SDS011;13440;50.860;13.662;2023-12-14T07:38:19;17.08;;;10.88;;
25163;SDS011;13440;50.860;13.662;2023-12-14T07:40:44;22.90;;;14.25;;
25163;SDS011;13440;50.860;13.662;2023-12-14T07:43:11;17.67;;;10.55;;
25163;SDS011;13440;50.860;13.662;2023-12-14T07:45:37;15.68;;;9.93;;
25163;SDS011;13440;50.860;13.662;2023-12-14T07:48:02;16.00;;;8.20;;
25163;SDS011;13440;50.860;13.662;2023-12-14T07:50:29;26.15;;;12.88;;
25163;SDS011;13440;50.860;13.662;2023-12-14T07:52:54;19.40;;;10.57;;
25163;SDS011;13440;50.860;13.662;2023-12-14T07:55:19;20.40;;;11.07;;
25163;SDS011;13440;50.860;13.662;2023-12-14T07:57:45;9.27;;;6.10;;
25163;SDS011;13440;50.860;13.662;2023-12-14T08:00:10;9.45;;;6.53;;
25163;SDS011;13440;50.860;13.662;2023-12-14T08:02:36;10.32;;;6.32;;
25163;SDS011;13440;50.860;13.662;2023-12-14T08:05:01;8.43;;;5.70;;
25163;SDS011;13440;50.860;13.662;2023-12-14T08:07:26;7.93;;;5.87;;
25163;SDS011;13440;50.860;13.662;2023-12-14T08:09:57;9.05;;;5.43;;
25163;SDS011;13440;50.860;13.662;2023-12-14T08:12:23;10.07;;;6.25;;
25163;SDS011;13440;50.860;13.662;2023-12-14T08:14:48;10.23;;;5.63;;
25163;SDS011;13440;50.860;13.662;2023-12-14T08:17:14;12.77;;;6.70;;
25163;SDS011;13440;50.860;13.662;2023-12-14T08:19:39;10.57;;;7.32;;
25163;SDS011;13440;50.860;13.662;2023-12-14T08:22:04;10.30;;;6.80;;
25163;SDS011;13440;50.860;13.662;2023-12-14T08:24:29;17.30;;;6.07;;
25163;SDS011;13440;50.860;13.662;2023-12-14T08:26:55;15.02;;;6.55;;
25163;SDS011;13440;50.860;13.662;2023-12-14T08:29:20;9.25;;;6.28;;
25163;SDS011;13440;50.860;13.662;2023-12-14T08:31:45;12.93;;;7.37;;
25163;SDS011;13440;50.860;13.662;2023-12-14T08:34:10;12.27;;;7.53;;
25163;SDS011;13440;50.860;13.662;2023-12-14T08:36:36;11.70;;;7.40;;
25163;SDS011;13440;50.860;13.662;2023-12-14T08:39:01;15.37;;;7.40;;
25163;SDS011;13440;50.860;13.662;2023-12-14T08:41:26;15.38;;;6.30;;
25163;SDS011;13440;50.860;13.662;2023-12-14T08:43:51;10.38;;;6.25;;
25163;SDS011;13440;50.860;13.662;2023-12-14T08:46:17;12.30;;;6.63;;
25163;SDS011;13440;50.860;13.662;2023-12-14T08:48:42;12.97;;;6.73;;
25163;SDS011;13440;50.860;13.662;2023-12-14T08:51:07;10.83;;;6.47;;
25163;SDS011;13440;50.860;13.662;2023-12-14T08:53:32;15.50;;;8.27;;
25163;SDS011;13440;50.860;13.662;2023-12-14T08:55:57;24.25;;;7.88;;
25163;SDS011;13440;50.860;13.662;2023-12-14T08:58:24;26.70;;;8.20;;
25163;SDS011;13440;50.860;13.662;2023-12-14T09:00:49;12.73;;;7.77;;
25163;SDS011;13440;50.860;13.662;2023-12-14T09:03:18;12.98;;;7.28;;
25163;SDS011;13440;50.860;13.662;2023-12-14T09:05:43;11.68;;;7.60;;
25163;SDS011;13440;50.860;13.662;2023-12-14T09:08:09;9.18;;;6.80;;
25163;SDS011;13440;50.860;13.662;2023-12-14T09:10:34;15.47;;;7.90;;
25163;SDS011;13440;50.860;13.662;2023-12-14T09:12:59;20.52;;;7.85;;
25163;SDS011;13440;50.860;13.662;2023-12-14T09:15:29;14.80;;;7.47;;
25163;SDS011;13440;50.860;13.662;2023-12-14T09:17:54;14.03;;;8.03;;
25163;SDS011;13440;50.860;13.662;2023-12-14T09:20:19;10.30;;;6.80;;
25163;SDS011;13440;50.860;13.662;2023-12-14T09:22:45;10.30;;;6.55;;
25163;SDS011;13440;50.860;13.662;2023-12-14T09:25:10;15.18;;;8.63;;
25163;SDS011;13440;50.860;13.662;2023-12-14T09:27:35;15.02;;;9.07;;
25163;SDS011;13440;50.860;13.662;2023-12-14T09:30:00;17.13;;;8.50;;
25163;SDS011;13440;50.860;13.662;2023-12-14T09:32:25;14.53;;;7.60;;
25163;SDS011;13440;50.860;13.662;2023-12-14T09:34:51;13.70;;;8.47;;
25163;SDS011;13440;50.860;13.662;2023-12-14T09:37:17;13.93;;;8.38;;
25163;SDS011;13440;50.860;13.662;2023-12-14T09:39:42;19.58;;;9.02;;
25163;SDS011;13440;50.860;13.662;2023-12-14T09:42:07;10.80;;;7.87;;
25163;SDS011;13440;50.860;13.662;2023-12-14T09:44:33;17.92;;;9.27;;
25163;SDS011;13440;50.860;13.662;2023-12-14T09:47:00;13.32;;;8.35;;
25163;SDS011;13440;50.860;13.662;2023-12-14T09:49:26;11.07;;;7.55;;
25163;SDS011;13440;50.860;13.662;2023-12-14T09:51:54;10.82;;;7.13;;
25163;SDS011;13440;50.860;13.662;2023-12-14T09:54:19;14.40;;;7.45;;
25163;SDS011;13440;50.860;13.662;2023-12-14T09:56:45;12.65;;;7.30;;
25163;SDS011;13440;50.860;13.662;2023-12-14T09:59:10;9.10;;;5.70;;
25163;SDS011;13440;50.860;13.662;2023-12-14T10:01:36;8.15;;;5.57;;
25163;SDS011;13440;50.860;13.662;2023-12-14T10:06:33;9.35;;;5.93;;
25163;SDS011;13440;50.860;13.662;2023-12-14T10:08:58;8.05;;;5.45;;
25163;SDS011;13440;50.860;13.662;2023-12-14T10:11:23;8.57;;;5.47;;
25163;SDS011;13440;50.860;13.662;2023-12-14T10:13:48;8.40;;;5.07;;
25163;SDS011;13440;50.860;13.662;2023-12-14T10:16:26;6.57;;;4.55;;
25163;SDS011;13440;50.860;13.662;2023-12-14T10:18:51;7.03;;;4.40;;
25163;SDS011;13440;50.860;13.662;2023-12-14T10:21:16;6.00;;;4.37;;
25163;SDS011;13440;50.860;13.662;2023-12-14T10:23:42;132.07;;;71.45;;
25163;SDS011;13440;50.860;13.662;2023-12-14T10:26:07;29.35;;;17.45;;
25163;SDS011;13440;50.860;13.662;2023-12-14T10:28:33;35.80;;;20.63;;
25163;SDS011;13440;50.860;13.662;2023-12-14T10:30:58;6.28;;;3.55;;
25163;SDS011;13440;50.860;13.662;2023-12-14T10:33:24;5.40;;;3.60;;
25163;SDS011;13440;50.860;13.662;2023-12-14T10:35:49;4.13;;;3.57;;
25163;SDS011;13440;50.860;13.662;2023-12-14T10:38:14;4.57;;;3.20;;
25163;SDS011;13440;50.860;13.662;2023-12-14T10:40:40;3.97;;;3.17;;
25163;SDS011;13440;50.860;13.662;2023-12-14T10:43:08;3.67;;;2.92;;
25163;SDS011;13440;50.860;13.662;2023-12-14T10:45:35;4.50;;;3.30;;
25163;SDS011;13440;50.860;13.662;2023-12-14T10:48:00;5.43;;;3.63;;
25163;SDS011;13440;50.860;13.662;2023-12-14T10:50:28;4.70;;;3.35;;
25163;SDS011;13440;50.860;13.662;2023-12-14T10:52:53;5.00;;;3.70;;
25163;SDS011;13440;50.860;13.662;2023-12-14T10:55:23;5.82;;;4.07;;
25163;SDS011;13440;50.860;13.662;2023-12-14T10:57:51;5.20;;;3.78;;
25163;SDS011;13440;50.860;13.662;2023-12-14T11:00:17;5.45;;;3.83;;
25163;SDS011;13440;50.860;13.662;2023-12-14T11:02:44;5.75;;;4.10;;
25163;SDS011;13440;50.860;13.662;2023-12-14T11:05:11;5.85;;;4.68;;
25163;SDS011;13440;50.860;13.662;2023-12-14T11:07:47;6.63;;;4.88;;
25163;SDS011;13440;50.860;13.662;2023-12-14T11:10:13;3.75;;;3.33;;
25163;SDS011;13440;50.860;13.662;2023-12-14T11:12:49;5.30;;;4.10;;
25163;SDS011;13440;50.860;13.662;2023-12-14T11:15:16;5.47;;;4.10;;
25163;SDS011;13440;50.860;13.662;2023-12-14T11:17:42;6.93;;;4.55;;
25163;SDS011;13440;50.860;13.662;2023-12-14T11:20:25;4.70;;;3.83;;
25163;SDS011;13440;50.860;13.662;2023-12-14T11:22:51;6.10;;;4.50;;
25163;SDS011;13440;50.860;13.662;2023-12-14T11:25:20;5.93;;;4.20;;
25163;SDS011;13440;50.860;13.662;2023-12-14T11:27:45;6.32;;;4.22;;
25163;SDS011;13440;50.860;13.662;2023-12-14T11:30:11;5.30;;;3.67;;
25163;SDS011;13440;50.860;13.662;2023-12-14T11:32:36;5.78;;;4.28;;
25163;SDS011;13440;50.860;13.662;2023-12-14T11:35:01;6.10;;;4.37;;
25163;SDS011;13440;50.860;13.662;2023-12-14T11:37:26;6.73;;;5.20;;
25163;SDS011;13440;50.860;13.662;2023-12-14T11:39:53;8.18;;;5.53;;
25163;SDS011;13440;50.860;13.662;2023-12-14T11:42:19;8.00;;;5.88;;
25163;SDS011;13440;50.860;13.662;2023-12-14T11:44:45;7.70;;;4.80;;
25163;SDS011;13440;50.860;13.662;2023-12-14T11:47:10;7.85;;;5.07;;
25163;SDS011;13440;50.860;13.662;2023-12-14T11:49:35;10.73;;;6.07;;
25163;SDS011;13440;50.860;13.662;2023-12-14T11:52:02;7.80;;;4.72;;
25163;SDS011;13440;50.860;13.662;2023-12-14T11:54:27;7.75;;;4.57;;
25163;SDS011;13440;50.860;13.662;2023-12-14T11:56:53;5.78;;;4.15;;
25163;SDS011;13440;50.860;13.662;2023-12-14T11:59:18;6.80;;;4.93;;
25163;SDS011;13440;50.860;13.662;2023-12-14T12:01:53;5.50;;;4.10;;
25163;SDS011;13440;50.860;13.662;2023-12-14T12:04:19;4.40;;;3.03;;
25163;SDS011;13440;50.860;13.662;2023-12-14T12:06:44;5.20;;;3.30;;
25163;SDS011;13440;50.860;13.662;2023-12-14T12:09:09;4.70;;;3.50;;
25163;SDS011;13440;50.860;13.662;2023-12-14T12:11:36;5.63;;;3.05;;
25163;SDS011;13440;50.860;13.662;2023-12-14T12:14:01;4.05;;;3.47;;
25163;SDS011;13440;50.860;13.662;2023-12-14T12:16:26;3.90;;;3.05;;
25163;SDS011;13440;50.860;13.662;2023-12-14T12:18:52;5.20;;;3.30;;
25163;SDS011;13440;50.860;13.662;2023-12-14T12:21:17;3.70;;;2.72;;
25163;SDS011;13440;50.860;13.662;2023-12-14T12:23:42;3.83;;;2.80;;
25163;SDS011;13440;50.860;13.662;2023-12-14T12:26:08;2.78;;;2.38;;
25163;SDS011;13440;50.860;13.662;2023-12-14T12:28:33;3.45;;;2.70;;
25163;SDS011;13440;50.860;13.662;2023-12-14T12:30:58;3.47;;;2.03;;
25163;SDS011;13440;50.860;13.662;2023-12-14T12:33:24;3.92;;;2.60;;
25163;SDS011;13440;50.860;13.662;2023-12-14T12:35:50;3.50;;;2.25;;
25163;SDS011;13440;50.860;13.662;2023-12-14T12:38:16;2.55;;;2.00;;
25163;SDS011;13440;50.860;13.662;2023-12-14T12:40:41;2.75;;;2.20;;
25163;SDS011;13440;50.860;13.662;2023-12-14T12:43:06;3.50;;;2.22;;
25163;SDS011;13440;50.860;13.662;2023-12-14T12:45:32;2.97;;;1.95;;
25163;SDS011;13440;50.860;13.662;2023-12-14T12:47:57;3.90;;;2.30;;
25163;SDS011;13440;50.860;13.662;2023-12-14T12:50:22;3.08;;;2.53;;
25163;SDS011;13440;50.860;13.662;2023-12-14T12:52:47;3.00;;;2.43;;
25163;SDS011;13440;50.860;13.662;2023-12-14T12:55:14;3.03;;;2.33;;
25163;SDS011;13440;50.860;13.662;2023-12-14T12:57:39;4.55;;;3.33;;
25163;SDS011;13440;50.860;13.662;2023-12-14T13:00:06;3.60;;;2.80;;
25163;SDS011;13440;50.860;13.662;2023-12-14T13:02:36;4.18;;;2.60;;
25163;SDS011;13440;50.860;13.662;2023-12-14T13:05:01;2.88;;;2.28;;
25163;SDS011;13440;50.860;13.662;2023-12-14T13:07:26;2.65;;;1.90;;
25163;SDS011;13440;50.860;13.662;2023-12-14T13:09:52;2.13;;;1.92;;
25163;SDS011;13440;50.860;13.662;2023-12-14T13:12:17;2.50;;;2.00;;
25163;SDS011;13440;50.860;13.662;2023-12-14T13:14:42;2.47;;;1.90;;
25163;SDS011;13440;50.860;13.662;2023-12-14T13:17:07;3.73;;;1.90;;
25163;SDS011;13440;50.860;13.662;2023-12-14T13:19:33;2.25;;;1.95;;
25163;SDS011;13440;50.860;13.662;2023-12-14T13:21:58;4.78;;;3.85;;
25163;SDS011;13440;50.860;13.662;2023-12-14T13:24:24;4.03;;;2.72;;
25163;SDS011;13440;50.860;13.662;2023-12-14T13:26:49;5.00;;;3.45;;
25163;SDS011;13440;50.860;13.662;2023-12-14T13:29:15;4.38;;;3.35;;
25163;SDS011;13440;50.860;13.662;2023-12-14T13:31:40;4.80;;;3.33;;
25163;SDS011;13440;50.860;13.662;2023-12-14T13:34:05;4.32;;;3.42;;
25163;SDS011;13440;50.860;13.662;2023-12-14T13:36:31;4.18;;;3.17;;
25163;SDS011;13440;50.860;13.662;2023-12-14T13:38:56;4.55;;;3.35;;
25163;SDS011;13440;50.860;13.662;2023-12-14T13:41:22;3.73;;;3.10;;
25163;SDS011;13440;50.860;13.662;2023-12-14T13:43:47;3.28;;;2.80;;
25163;SDS011;13440;50.860;13.662;2023-12-14T13:46:12;5.00;;;3.57;;
25163;SDS011;13440;50.860;13.662;2023-12-14T13:48:37;6.13;;;3.50;;
25163;SDS011;13440;50.860;13.662;2023-12-14T13:51:02;5.43;;;3.47;;
25163;SDS011;13440;50.860;13.662;2023-12-14T13:53:28;4.75;;;3.40;;
25163;SDS011;13440;50.860;13.662;2023-12-14T13:55:53;4.43;;;3.53;;
25163;SDS011;13440;50.860;13.662;2023-12-14T13:58:18;4.05;;;3.30;;
25163;SDS011;13440;50.860;13.662;2023-12-14T14:00:44;4.72;;;3.05;;
25163;SDS011;13440;50.860;13.662;2023-12-14T14:03:09;43.20;;;25.90;;
25163;SDS011;13440;50.860;13.662;2023-12-14T14:05:35;3.08;;;2.53;;
25163;SDS011;13440;50.860;13.662;2023-12-14T14:08:00;2.42;;;2.00;;
25163;SDS011;13440;50.860;13.662;2023-12-14T14:10:25;3.05;;;2.58;;
25163;SDS011;13440;50.860;13.662;2023-12-14T14:12:50;4.07;;;2.45;;
25163;SDS011;13440;50.860;13.662;2023-12-14T14:15:16;2.65;;;2.17;;
25163;SDS011;13440;50.860;13.662;2023-12-14T14:17:41;2.92;;;2.30;;